createdAt,value
2023-09-11T00:01:28.943Z,70.95
2023-09-11T00:04:18.101Z,70.95
2023-09-11T00:07:31.590Z,70.66
2023-09-11T00:11:01.103Z,70.95
2023-09-11T00:14:29.409Z,71.05
2023-09-11T00:18:19.075Z,71.37
2023-09-11T00:21:51.651Z,71.46
2023-09-11T00:25:14.363Z,71.41
2023-09-11T00:28:38.647Z,71.38
2023-09-11T00:32:27.285Z,71.57
2023-09-11T00:35:51.108Z,71.56
2023-09-11T00:39:04.397Z,71.49
2023-09-11T00:41:46.153Z,71.53
2023-09-11T00:44:43.167Z,71.55
2023-09-11T00:47:15.022Z,71.42
2023-09-11T00:50:13.221Z,71.31
2023-09-11T00:52:45.394Z,71.60
2023-09-11T00:55:34.539Z,71.68
2023-09-11T00:58:30.582Z,71.70
2023-09-11T01:01:22.042Z,71.66
2023-09-11T01:04:05.115Z,71.63
2023-09-11T01:06:44.197Z,71.91
2023-09-11T01:09:42.149Z,71.61
2023-09-11T01:12:34.200Z,71.83
2023-09-11T01:15:29.054Z,71.63
2023-09-11T01:18:57.024Z,71.73
2023-09-11T01:22:11.397Z,71.94
2023-09-11T01:25:24.641Z,71.84
2023-09-11T01:29:01.642Z,71.90
2023-09-11T01:32:34.548Z,72.11
2023-09-11T01:35:13.768Z,72.23
2023-09-11T01:38:57.030Z,72.32
2023-09-11T01:42:26.560Z,72.18
2023-09-11T01:45:37.290Z,72.37
2023-09-11T01:49:04.699Z,72.16
2023-09-11T01:52:14.113Z,72.29
2023-09-11T01:55:26.182Z,72.45
2023-09-11T01:59:06.651Z,72.59
2023-09-11T02:02:56.597Z,72.59
2023-09-11T02:06:45.297Z,72.80
2023-09-11T02:10:20.507Z,72.98
2023-09-11T02:13:43.199Z,72.84
2023-09-11T02:17:14.141Z,73.08
2023-09-11T02:20:49.123Z,73.23
2023-09-11T02:24:21.604Z,73.22
2023-09-11T02:27:51.117Z,73.46
2023-09-11T02:30:55.303Z,73.29
2023-09-11T02:34:20.540Z,73.09
2023-09-11T02:37:29.215Z,73.23
2023-09-11T02:41:18.890Z,73.30
2023-09-11T02:44:49.153Z,73.20
2023-09-11T02:48:28.957Z,73.31
2023-09-11T02:51:41.476Z,73.41
2023-09-11T02:54:50.777Z,73.24
2023-09-11T02:58:20.283Z,73.15
2023-09-11T03:01:34.357Z,73.42
2023-09-11T03:04:19.152Z,73.45
2023-09-11T03:07:27.676Z,73.55
2023-09-11T03:10:09.157Z,73.58
2023-09-11T03:13:20.995Z,73.65
2023-09-11T03:16:38.888Z,73.72
2023-09-11T03:19:25.037Z,73.71
2023-09-11T03:22:23.931Z,73.79
2023-09-11T03:25:47.342Z,73.94
2023-09-11T03:29:37.137Z,74.02
2023-09-11T03:33:05.325Z,74.01
2023-09-11T03:36:21.357Z,74.20
2023-09-11T03:39:10.435Z,74.49
2023-09-11T03:41:49.042Z,74.57
2023-09-11T03:45:03.703Z,74.20
2023-09-11T03:47:55.678Z,74.37
2023-09-11T03:51:14.795Z,74.44
2023-09-11T03:55:04.419Z,74.51
2023-09-11T03:58:54.008Z,74.78
2023-09-11T04:02:06.155Z,74.68
2023-09-11T04:05:49.036Z,74.47
2023-09-11T04:08:59.797Z,74.82
2023-09-11T04:12:21.733Z,74.64
2023-09-11T04:15:44.030Z,74.58
2023-09-11T04:18:41.640Z,74.51
2023-09-11T04:21:51.082Z,74.26
2023-09-11T04:24:43.416Z,74.20
2023-09-11T04:27:25.064Z,74.28
2023-09-11T04:30:22.210Z,74.38
2023-09-11T04:33:06.409Z,74.37
2023-09-11T04:36:29.162Z,74.23
2023-09-11T04:39:43.671Z,74.32
2023-09-11T04:42:52.548Z,74.32
2023-09-11T04:45:36.222Z,73.84
2023-09-11T04:48:51.555Z,73.77
2023-09-11T04:51:47.265Z,73.57
2023-09-11T04:54:22.055Z,73.63
2023-09-11T04:57:18.745Z,73.45
2023-09-11T05:00:01.418Z,73.33
2023-09-11T05:02:37.189Z,73.03
2023-09-11T05:05:25.335Z,72.87
2023-09-11T05:08:07.979Z,72.57
2023-09-11T05:11:13.157Z,72.61
2023-09-11T05:14:23.383Z,72.46
2023-09-11T05:18:03.501Z,72.23
2023-09-11T05:21:38.036Z,72.20
2023-09-11T05:24:54.717Z,71.90
2023-09-11T05:28:24.117Z,71.64
2023-09-11T05:31:08.677Z,71.54
2023-09-11T05:34:37.002Z,71.33
2023-09-11T05:38:25.280Z,70.96
2023-09-11T05:41:14.480Z,70.72
2023-09-11T05:44:26.184Z,70.31
2023-09-11T05:47:38.540Z,69.73
2023-09-11T05:50:38.682Z,69.37
2023-09-11T05:54:01.199Z,69.35
2023-09-11T05:57:50.924Z,68.50
2023-09-11T06:01:28.267Z,68.01
2023-09-11T06:05:01.056Z,67.70
2023-09-11T06:08:50.493Z,67.06
2023-09-11T06:12:13.084Z,66.62
2023-09-11T06:15:50.548Z,65.45
2023-09-11T06:19:40.234Z,65.04
2023-09-11T06:23:21.246Z,64.58
2023-09-11T06:26:05.986Z,64.15
2023-09-11T06:29:11.471Z,63.27
2023-09-11T06:32:21.005Z,63.11
2023-09-11T06:35:32.976Z,62.60
2023-09-11T06:39:22.456Z,61.68
2023-09-11T06:42:15.016Z,60.44
2023-09-11T06:45:34.427Z,60.00
2023-09-11T06:48:37.018Z,60.36
2023-09-11T06:51:12.532Z,59.54
2023-09-11T06:53:55.808Z,54.56
2023-09-11T06:57:07.676Z,53.81
2023-09-11T07:00:17.393Z,52.33
2023-09-11T07:04:07.232Z,52.98
2023-09-11T07:07:29.672Z,52.77
2023-09-11T07:10:34.097Z,53.03
2023-09-11T07:13:43.632Z,51.49
2023-09-11T07:16:15.299Z,53.30
2023-09-11T07:18:52.344Z,52.05
2023-09-11T07:21:53.204Z,51.47
2023-09-11T07:25:23.648Z,50.42
2023-09-11T07:28:26.169Z,50.15
2023-09-11T07:31:55.552Z,50.01
2023-09-11T07:34:45.624Z,50.68
2023-09-11T07:37:17.778Z,48.41
2023-09-11T07:40:11.752Z,48.51
2023-09-11T07:43:49.988Z,47.70
2023-09-11T07:47:23.204Z,47.71
2023-09-11T07:50:34.532Z,49.19
2023-09-11T07:53:07.144Z,48.70
2023-09-11T07:56:23.019Z,47.75
2023-09-11T07:59:38.877Z,48.30
2023-09-11T08:03:09.937Z,49.25
2023-09-11T08:06:16.985Z,49.11
2023-09-11T08:09:19.197Z,48.25
2023-09-11T08:13:08.587Z,48.77
2023-09-11T08:16:48.154Z,48.28
2023-09-11T08:20:08.229Z,48.58
2023-09-11T08:22:36.854Z,49.06
2023-09-11T08:25:15.112Z,49.85
2023-09-11T08:28:07.104Z,49.15
2023-09-11T08:30:41.023Z,49.27
2023-09-11T08:33:23.086Z,49.98
2023-09-11T08:36:01.440Z,49.62
2023-09-11T08:38:50.769Z,47.73
2023-09-11T08:42:16.828Z,47.39
2023-09-11T08:44:48.959Z,48.22
2023-09-11T08:47:43.202Z,47.31
2023-09-11T08:50:12.665Z,47.48
2023-09-11T08:52:48.157Z,46.97
2023-09-11T08:56:00.207Z,46.38
2023-09-11T08:59:03.914Z,46.66
2023-09-11T09:01:59.242Z,45.38
2023-09-11T09:04:39.213Z,43.77
2023-09-11T09:07:14.260Z,43.86
2023-09-11T09:10:46.178Z,43.05
2023-09-11T09:13:57.721Z,43.87
2023-09-11T09:16:39.019Z,43.33
2023-09-11T09:19:40.518Z,43.05
2023-09-11T09:22:53.492Z,43.26
2023-09-11T09:25:29.841Z,42.81
2023-09-11T09:28:38.206Z,42.42
2023-09-11T09:31:27.652Z,42.41
2023-09-11T09:34:00.272Z,41.62
2023-09-11T09:37:09.493Z,41.34
2023-09-11T09:39:45.809Z,41.93
2023-09-11T09:42:34.602Z,42.09
2023-09-11T09:46:06.485Z,41.94
2023-09-11T09:48:35.958Z,40.88
2023-09-11T09:51:10.576Z,40.81
2023-09-11T09:54:06.294Z,40.67
2023-09-11T09:56:57.049Z,39.56
2023-09-11T09:59:28.120Z,37.53
2023-09-11T10:01:57.156Z,36.60
2023-09-11T10:04:37.093Z,35.22
2023-09-11T10:07:13.211Z,36.27
2023-09-11T10:09:42.361Z,35.84
2023-09-11T10:12:16.693Z,35.96
2023-09-11T10:15:08.485Z,36.46
2023-09-11T10:17:38.769Z,36.23
2023-09-11T10:20:17.598Z,35.74
2023-09-11T10:23:13.621Z,35.04
2023-09-11T10:25:53.000Z,35.88
2023-09-11T10:28:30.389Z,34.64
2023-09-11T10:31:51.610Z,33.48
2023-09-11T10:34:37.551Z,36.54
2023-09-11T10:37:24.410Z,35.80
2023-09-11T10:39:55.820Z,35.19
2023-09-11T10:42:24.659Z,32.79
2023-09-11T10:44:54.226Z,32.84
2023-09-11T10:47:24.332Z,31.14
2023-09-11T10:49:57.668Z,29.32
2023-09-11T10:52:49.143Z,30.11
2023-09-11T10:55:19.307Z,31.85
2023-09-11T10:58:00.177Z,32.79
2023-09-11T11:00:40.174Z,32.12
2023-09-11T11:03:09.069Z,33.43
2023-09-11T11:05:38.808Z,33.06
2023-09-11T11:08:09.661Z,32.94
2023-09-11T11:10:53.188Z,30.85
2023-09-11T11:13:27.559Z,28.93
2023-09-11T11:16:20.639Z,29.17
2023-09-11T11:18:53.491Z,29.35
2023-09-11T11:21:22.505Z,29.08
2023-09-11T11:24:01.623Z,28.41
2023-09-11T11:26:39.152Z,28.91
2023-09-11T11:29:08.307Z,28.95
2023-09-11T11:31:38.455Z,28.16
2023-09-11T11:34:08.136Z,29.03
2023-09-11T11:36:40.144Z,30.81
2023-09-11T11:39:09.393Z,29.92
2023-09-11T11:41:38.780Z,29.01
2023-09-11T11:44:08.028Z,28.42
2023-09-11T11:46:36.878Z,29.18
2023-09-11T11:49:05.678Z,29.19
2023-09-11T11:51:34.408Z,31.26
2023-09-11T11:54:23.476Z,32.42
2023-09-11T11:56:56.970Z,32.26
2023-09-11T11:59:52.962Z,31.01
2023-09-11T12:02:28.651Z,31.51
2023-09-11T12:04:57.400Z,31.73
2023-09-11T12:07:45.326Z,31.65
2023-09-11T12:10:45.545Z,31.82
2023-09-11T12:13:42.975Z,31.41
2023-09-11T12:16:31.320Z,32.24
2023-09-11T12:19:05.935Z,31.81
2023-09-11T12:21:49.857Z,31.86
2023-09-11T12:24:20.805Z,29.91
2023-09-11T12:26:49.499Z,30.84
2023-09-11T12:29:24.433Z,30.47
2023-09-11T12:31:53.250Z,31.17
2023-09-11T12:34:21.781Z,30.78
2023-09-11T12:36:50.465Z,30.87
2023-09-11T12:39:19.516Z,31.04
2023-09-11T12:41:48.570Z,32.09
2023-09-11T12:44:37.554Z,33.04
2023-09-11T12:47:06.974Z,33.05
2023-09-11T12:49:35.873Z,32.10
2023-09-11T12:52:08.088Z,30.34
2023-09-11T12:54:37.068Z,30.65
2023-09-11T12:57:08.728Z,31.67
2023-09-11T12:59:40.460Z,31.28
2023-09-11T13:02:12.488Z,30.64
2023-09-11T13:04:44.719Z,30.35
2023-09-11T13:07:13.581Z,31.13
2023-09-11T13:09:42.842Z,31.97
2023-09-11T13:12:17.230Z,30.67
2023-09-11T13:15:07.345Z,30.40
2023-09-11T13:17:37.869Z,30.08
2023-09-11T13:20:07.326Z,29.56
2023-09-11T13:22:36.176Z,28.70
2023-09-11T13:25:05.840Z,28.95
2023-09-11T13:27:41.073Z,28.51
2023-09-11T13:30:10.406Z,29.27
2023-09-11T13:32:39.478Z,29.27
2023-09-11T13:35:08.970Z,29.47
2023-09-11T13:37:37.819Z,29.21
2023-09-11T13:40:17.650Z,28.58
2023-09-11T13:42:46.332Z,29.45
2023-09-11T13:45:21.494Z,29.50
2023-09-11T13:47:51.426Z,29.76
2023-09-11T13:50:20.328Z,30.64
2023-09-11T13:52:48.949Z,30.32
2023-09-11T13:55:17.911Z,29.49
2023-09-11T13:57:46.537Z,29.40
2023-09-11T14:00:15.723Z,29.62
2023-09-11T14:02:47.767Z,30.20
2023-09-11T14:05:16.529Z,29.25
2023-09-11T14:07:45.421Z,29.75
2023-09-11T14:10:14.263Z,29.47
2023-09-11T14:12:42.873Z,29.57
2023-09-11T14:15:13.941Z,30.24
2023-09-11T14:17:51.093Z,29.97
2023-09-11T14:20:28.729Z,30.71
2023-09-11T14:23:17.872Z,30.89
2023-09-11T14:26:22.919Z,31.23
2023-09-11T14:29:02.732Z,30.41
2023-09-11T14:32:15.862Z,30.73
2023-09-11T14:35:22.011Z,30.73
2023-09-11T14:37:50.884Z,31.10
2023-09-11T14:40:19.623Z,29.87
2023-09-11T14:43:11.452Z,30.77
2023-09-11T14:45:40.207Z,30.53
2023-09-11T14:48:11.363Z,31.28
2023-09-11T14:50:40.372Z,31.54
2023-09-11T14:53:09.109Z,32.00
2023-09-11T14:55:37.839Z,33.24
2023-09-11T14:58:27.723Z,32.99
2023-09-11T15:01:10.305Z,32.40
2023-09-11T15:03:51.653Z,33.13
2023-09-11T15:06:28.389Z,33.71
2023-09-11T15:09:02.519Z,34.08
2023-09-11T15:11:56.985Z,32.97
2023-09-11T15:14:35.156Z,33.46
2023-09-11T15:17:04.466Z,33.72
2023-09-11T15:19:33.279Z,34.01
2023-09-11T15:22:02.242Z,34.41
2023-09-11T15:24:31.072Z,34.54
2023-09-11T15:27:02.124Z,33.86
2023-09-11T15:29:31.458Z,34.10
2023-09-11T15:32:12.742Z,34.04
2023-09-11T15:34:43.762Z,34.61
2023-09-11T15:37:37.331Z,34.74
2023-09-11T15:40:10.179Z,35.29
2023-09-11T15:42:39.069Z,35.74
2023-09-11T15:45:16.195Z,36.20
2023-09-11T15:48:02.387Z,36.49
2023-09-11T15:50:33.791Z,37.01
2023-09-11T15:53:41.701Z,37.43
2023-09-11T15:56:25.490Z,37.86
2023-09-11T16:00:01.195Z,38.91
2023-09-11T16:03:03.850Z,38.84
2023-09-11T16:05:46.806Z,39.28
2023-09-11T16:08:38.949Z,40.47
2023-09-11T16:11:43.918Z,41.07
2023-09-11T16:14:49.014Z,41.52
2023-09-11T16:17:52.495Z,42.12
2023-09-11T16:21:41.492Z,43.13
2023-09-11T16:24:38.466Z,43.83
2023-09-11T16:28:00.656Z,44.15
2023-09-11T16:31:33.228Z,44.61
2023-09-11T16:34:45.745Z,45.14
2023-09-11T16:38:18.031Z,45.93
2023-09-11T16:41:30.486Z,46.93
2023-09-11T16:44:53.318Z,48.11
2023-09-11T16:48:25.991Z,48.74
2023-09-11T16:51:41.082Z,49.25
2023-09-11T16:54:53.166Z,50.21
2023-09-11T16:58:43.001Z,50.80
2023-09-11T17:01:52.371Z,51.61
2023-09-11T17:05:01.855Z,52.16
2023-09-11T17:08:41.314Z,52.68
2023-09-11T17:12:03.468Z,53.22
2023-09-11T17:15:32.906Z,53.78
2023-09-11T17:19:22.334Z,54.28
2023-09-11T17:23:01.819Z,54.80
2023-09-11T17:26:30.926Z,55.55
2023-09-11T17:29:10.017Z,56.18
2023-09-11T17:31:56.101Z,56.33
2023-09-11T17:35:25.404Z,56.59
2023-09-11T17:38:54.675Z,57.07
2023-09-11T17:41:56.635Z,57.70
2023-09-11T17:44:41.285Z,57.81
2023-09-11T17:47:35.690Z,58.01
2023-09-11T17:50:29.847Z,58.65
2023-09-11T17:53:29.066Z,58.96
2023-09-11T17:56:35.732Z,59.26
2023-09-11T17:59:48.019Z,59.76
2023-09-11T18:03:08.774Z,59.96
2023-09-11T18:06:21.363Z,60.15
2023-09-11T18:10:10.894Z,60.36
2023-09-11T18:12:43.048Z,61.43
2023-09-11T18:16:11.743Z,61.12
2023-09-11T18:19:00.884Z,60.92
2023-09-11T18:21:33.311Z,61.10
2023-09-11T18:24:05.443Z,61.14
2023-09-11T18:26:38.074Z,61.01
2023-09-11T18:29:18.272Z,61.31
2023-09-11T18:32:12.759Z,61.38
2023-09-11T18:34:59.227Z,61.58
2023-09-11T18:38:25.096Z,61.62
2023-09-11T18:41:34.835Z,61.78
2023-09-11T18:44:03.725Z,61.44
2023-09-11T18:47:36.003Z,61.31
2023-09-11T18:50:58.864Z,62.25
2023-09-11T18:54:28.492Z,62.90
2023-09-11T18:58:03.459Z,63.34
2023-09-11T19:01:47.469Z,63.47
2023-09-11T19:05:37.965Z,63.95
2023-09-11T19:09:07.357Z,64.12
2023-09-11T19:12:36.879Z,64.29
2023-09-11T19:16:26.677Z,64.62
2023-09-11T19:19:53.589Z,64.39
2023-09-11T19:23:34.710Z,64.48
2023-09-11T19:27:04.490Z,64.45
2023-09-11T19:30:54.514Z,64.58
2023-09-11T19:34:15.158Z,64.62
2023-09-11T19:37:58.345Z,64.88
2023-09-11T19:41:23.277Z,65.30
2023-09-11T19:44:14.714Z,65.47
2023-09-11T19:48:04.577Z,65.88
2023-09-11T19:51:30.203Z,66.10
2023-09-11T19:54:58.610Z,66.57
2023-09-11T19:58:28.060Z,66.69
2023-09-11T20:02:17.803Z,66.70
2023-09-11T20:06:08.215Z,66.91
2023-09-11T20:09:58.028Z,67.31
2023-09-11T20:13:47.561Z,67.49
2023-09-11T20:17:35.696Z,67.41
2023-09-11T20:21:25.553Z,67.53
2023-09-11T20:25:15.025Z,67.16
2023-09-11T20:28:45.413Z,67.29
2023-09-11T20:32:24.642Z,67.40
2023-09-11T20:36:14.511Z,67.48
2023-09-11T20:40:06.979Z,67.72
2023-09-11T20:43:04.193Z,68.01
2023-09-11T20:46:53.818Z,67.94
2023-09-11T20:50:43.649Z,67.96
2023-09-11T20:53:35.438Z,68.21
2023-09-11T20:57:24.686Z,68.26
2023-09-11T21:00:37.545Z,68.45
2023-09-11T21:04:27.665Z,68.46
2023-09-11T21:08:17.499Z,68.51
2023-09-11T21:12:06.858Z,68.58
2023-09-11T21:15:27.725Z,68.84
2023-09-11T21:19:17.570Z,68.82
2023-09-11T21:22:31.847Z,68.59
2023-09-11T21:26:04.235Z,68.53
2023-09-11T21:29:43.702Z,68.42
2023-09-11T21:32:44.393Z,68.56
2023-09-11T21:36:07.817Z,68.75
2023-09-11T21:39:47.432Z,68.79
2023-09-11T21:43:37.232Z,68.99
2023-09-11T21:47:06.800Z,69.11
2023-09-11T21:50:36.302Z,69.14
2023-09-11T21:54:14.892Z,69.31
2023-09-11T21:58:00.122Z,69.47
2023-09-11T22:01:31.607Z,69.43
2023-09-11T22:05:11.013Z,69.65
2023-09-11T22:08:39.034Z,70.00
2023-09-11T22:12:20.300Z,69.92
2023-09-11T22:15:48.816Z,69.88
2023-09-11T22:19:38.274Z,70.14
2023-09-11T22:23:27.892Z,70.17
2023-09-11T22:26:19.596Z,70.19
2023-09-11T22:29:40.044Z,70.38
2023-09-11T22:33:08.033Z,70.26
2023-09-11T22:36:57.545Z,70.31
2023-09-11T22:40:22.591Z,70.39
2023-09-11T22:43:52.018Z,70.43
2023-09-11T22:47:31.515Z,70.55
2023-09-11T22:51:19.850Z,70.54
2023-09-11T22:54:37.928Z,70.81
2023-09-11T22:58:12.940Z,70.83
2023-09-11T23:01:48.759Z,70.87
2023-09-11T23:04:46.352Z,70.84
2023-09-11T23:08:06.725Z,70.92
2023-09-11T23:11:14.415Z,71.00
2023-09-11T23:14:26.703Z,70.94
2023-09-11T23:17:56.215Z,71.03
2023-09-11T23:21:37.228Z,71.14
2023-09-11T23:25:18.129Z,71.27
2023-09-11T23:28:11.900Z,71.45
2023-09-11T23:31:38.169Z,71.60
2023-09-11T23:34:10.140Z,71.61
2023-09-11T23:37:41.449Z,71.67
2023-09-11T23:40:50.698Z,71.71
2023-09-11T23:43:31.358Z,71.68
2023-09-11T23:46:23.456Z,71.70
2023-09-11T23:49:25.197Z,71.68
2023-09-11T23:53:08.679Z,72.03
2023-09-11T23:56:58.075Z,71.91
